sensor_id;sensor_type;location;lat;lon;timestamp;P1;durP1;ratioP1;P2;durP2;ratioP2
5871;SDS011;2962;51.312;7.378;2023-07-31T00:00:44;9.83;;;4.97;;
5871;SDS011;2962;51.312;7.378;2023-07-31T00:03:11;16.53;;;5.87;;
5871;SDS011;2962;51.312;7.378;2023-07-31T00:05:36;14.47;;;6.00;;
5871;SDS011;2962;51.312;7.378;2023-07-31T00:08:01;7.37;;;3.30;;
5871;SDS011;2962;51.312;7.378;2023-07-31T00:10:27;12.50;;;5.47;;
5871;SDS011;2962;51.312;7.378;2023-07-31T00:12:52;10.63;;;5.33;;
5871;SDS011;2962;51.312;7.378;2023-07-31T00:15:17;7.90;;;4.30;;
5871;SDS011;2962;51.312;7.378;2023-07-31T00:17:43;14.23;;;5.10;;
5871;SDS011;2962;51.312;7.378;2023-07-31T00:20:08;10.30;;;5.10;;
5871;SDS011;2962;51.312;7.378;2023-07-31T00:22:34;10.03;;;4.83;;
5871;SDS011;2962;51.312;7.378;2023-07-31T00:24:59;9.20;;;4.50;;
5871;SDS011;2962;51.312;7.378;2023-07-31T00:27:24;6.67;;;4.90;;
5871;SDS011;2962;51.312;7.378;2023-07-31T00:29:50;12.87;;;5.33;;
5871;SDS011;2962;51.312;7.378;2023-07-31T00:32:15;5.23;;;4.37;;
5871;SDS011;2962;51.312;7.378;2023-07-31T00:34:40;16.90;;;4.70;;
5871;SDS011;2962;51.312;7.378;2023-07-31T00:37:06;12.27;;;5.87;;
5871;SDS011;2962;51.312;7.378;2023-07-31T00:39:33;5.70;;;4.43;;
5871;SDS011;2962;51.312;7.378;2023-07-31T00:41:59;12.60;;;4.70;;
5871;SDS011;2962;51.312;7.378;2023-07-31T00:44:24;11.70;;;5.20;;
5871;SDS011;2962;51.312;7.378;2023-07-31T00:46:50;11.07;;;4.37;;
5871;SDS011;2962;51.312;7.378;2023-07-31T00:49:15;16.87;;;5.07;;
5871;SDS011;2962;51.312;7.378;2023-07-31T00:51:41;16.03;;;6.33;;
5871;SDS011;2962;51.312;7.378;2023-07-31T00:54:06;12.73;;;5.20;;
5871;SDS011;2962;51.312;7.378;2023-07-31T00:56:31;8.67;;;5.20;;
5871;SDS011;2962;51.312;7.378;2023-07-31T00:58:57;12.80;;;5.80;;
5871;SDS011;2962;51.312;7.378;2023-07-31T01:01:22;14.37;;;5.00;;
5871;SDS011;2962;51.312;7.378;2023-07-31T01:03:48;10.83;;;5.80;;
5871;SDS011;2962;51.312;7.378;2023-07-31T01:06:20;5.43;;;3.30;;
5871;SDS011;2962;51.312;7.378;2023-07-31T01:12:02;7.90;;;4.43;;
5871;SDS011;2962;51.312;7.378;2023-07-31T01:14:29;13.20;;;5.33;;
5871;SDS011;2962;51.312;7.378;2023-07-31T01:16:55;11.60;;;4.90;;
5871;SDS011;2962;51.312;7.378;2023-07-31T01:19:24;27.50;;;6.77;;
5871;SDS011;2962;51.312;7.378;2023-07-31T01:25:00;9.30;;;5.30;;
5871;SDS011;2962;51.312;7.378;2023-07-31T01:28:00;11.20;;;5.30;;
5871;SDS011;2962;51.312;7.378;2023-07-31T01:30:33;14.93;;;4.90;;
5871;SDS011;2962;51.312;7.378;2023-07-31T01:33:02;12.80;;;5.57;;
5871;SDS011;2962;51.312;7.378;2023-07-31T01:35:34;6.60;;;5.07;;
5871;SDS011;2962;51.312;7.378;2023-07-31T01:38:00;9.53;;;5.83;;
5871;SDS011;2962;51.312;7.378;2023-07-31T01:40:26;12.83;;;5.20;;
5871;SDS011;2962;51.312;7.378;2023-07-31T01:42:51;5.50;;;4.17;;
5871;SDS011;2962;51.312;7.378;2023-07-31T01:45:16;11.73;;;5.40;;
5871;SDS011;2962;51.312;7.378;2023-07-31T01:47:42;14.80;;;4.50;;
5871;SDS011;2962;51.312;7.378;2023-07-31T01:50:07;10.73;;;5.10;;
5871;SDS011;2962;51.312;7.378;2023-07-31T01:52:32;8.83;;;3.47;;
5871;SDS011;2962;51.312;7.378;2023-07-31T01:54:58;14.60;;;5.10;;
5871;SDS011;2962;51.312;7.378;2023-07-31T01:57:23;17.50;;;5.00;;
5871;SDS011;2962;51.312;7.378;2023-07-31T01:59:48;17.97;;;5.37;;
5871;SDS011;2962;51.312;7.378;2023-07-31T02:02:14;4.93;;;4.47;;
5871;SDS011;2962;51.312;7.378;2023-07-31T02:04:39;9.37;;;4.30;;
5871;SDS011;2962;51.312;7.378;2023-07-31T02:07:05;7.50;;;4.33;;
5871;SDS011;2962;51.312;7.378;2023-07-31T02:09:31;11.90;;;5.40;;
5871;SDS011;2962;51.312;7.378;2023-07-31T02:11:56;8.83;;;5.23;;
5871;SDS011;2962;51.312;7.378;2023-07-31T02:14:21;12.87;;;5.67;;
5871;SDS011;2962;51.312;7.378;2023-07-31T02:16:47;6.70;;;4.70;;
5871;SDS011;2962;51.312;7.378;2023-07-31T02:19:12;11.27;;;4.70;;
5871;SDS011;2962;51.312;7.378;2023-07-31T02:21:37;12.20;;;5.87;;
5871;SDS011;2962;51.312;7.378;2023-07-31T02:24:02;10.00;;;4.40;;
5871;SDS011;2962;51.312;7.378;2023-07-31T02:26:28;15.17;;;4.90;;
5871;SDS011;2962;51.312;7.378;2023-07-31T02:28:53;19.43;;;5.33;;
5871;SDS011;2962;51.312;7.378;2023-07-31T02:31:18;6.90;;;4.87;;
5871;SDS011;2962;51.312;7.378;2023-07-31T02:33:44;9.47;;;3.70;;
5871;SDS011;2962;51.312;7.378;2023-07-31T02:36:09;5.37;;;3.50;;
5871;SDS011;2962;51.312;7.378;2023-07-31T02:38:34;10.50;;;5.10;;
5871;SDS011;2962;51.312;7.378;2023-07-31T02:40:59;10.80;;;4.83;;
5871;SDS011;2962;51.312;7.378;2023-07-31T02:43:25;11.17;;;4.90;;
5871;SDS011;2962;51.312;7.378;2023-07-31T02:45:53;10.30;;;4.93;;
5871;SDS011;2962;51.312;7.378;2023-07-31T02:48:18;21.27;;;4.83;;
5871;SDS011;2962;51.312;7.378;2023-07-31T02:50:44;10.70;;;5.17;;
5871;SDS011;2962;51.312;7.378;2023-07-31T02:53:10;8.47;;;4.67;;
5871;SDS011;2962;51.312;7.378;2023-07-31T02:55:35;10.63;;;4.60;;
5871;SDS011;2962;51.312;7.378;2023-07-31T02:58:01;14.67;;;4.60;;
5871;SDS011;2962;51.312;7.378;2023-07-31T03:00:26;4.50;;;3.10;;
5871;SDS011;2962;51.312;7.378;2023-07-31T03:02:51;11.33;;;4.30;;
5871;SDS011;2962;51.312;7.378;2023-07-31T03:05:17;7.33;;;4.23;;
5871;SDS011;2962;51.312;7.378;2023-07-31T03:07:42;10.03;;;4.87;;
5871;SDS011;2962;51.312;7.378;2023-07-31T03:10:07;11.77;;;3.83;;
5871;SDS011;2962;51.312;7.378;2023-07-31T03:12:33;15.90;;;4.73;;
5871;SDS011;2962;51.312;7.378;2023-07-31T03:14:58;9.43;;;3.53;;
5871;SDS011;2962;51.312;7.378;2023-07-31T03:17:23;8.23;;;3.83;;
5871;SDS011;2962;51.312;7.378;2023-07-31T03:19:49;10.50;;;4.43;;
5871;SDS011;2962;51.312;7.378;2023-07-31T03:22:14;7.03;;;4.20;;
5871;SDS011;2962;51.312;7.378;2023-07-31T03:24:39;7.90;;;3.70;;
5871;SDS011;2962;51.312;7.378;2023-07-31T03:27:05;5.67;;;3.53;;
5871;SDS011;2962;51.312;7.378;2023-07-31T03:29:30;7.80;;;3.80;;
5871;SDS011;2962;51.312;7.378;2023-07-31T03:31:55;7.70;;;4.23;;
5871;SDS011;2962;51.312;7.378;2023-07-31T03:34:21;14.30;;;3.90;;
5871;SDS011;2962;51.312;7.378;2023-07-31T03:36:46;7.10;;;3.77;;
5871;SDS011;2962;51.312;7.378;2023-07-31T03:39:11;6.80;;;4.70;;
5871;SDS011;2962;51.312;7.378;2023-07-31T03:41:37;10.27;;;3.90;;
5871;SDS011;2962;51.312;7.378;2023-07-31T03:44:02;10.20;;;5.10;;
5871;SDS011;2962;51.312;7.378;2023-07-31T03:46:27;4.23;;;3.70;;
5871;SDS011;2962;51.312;7.378;2023-07-31T03:48:53;7.53;;;3.90;;
5871;SDS011;2962;51.312;7.378;2023-07-31T03:51:18;5.20;;;4.10;;
5871;SDS011;2962;51.312;7.378;2023-07-31T03:53:43;9.33;;;4.03;;
5871;SDS011;2962;51.312;7.378;2023-07-31T03:56:09;6.93;;;3.90;;
5871;SDS011;2962;51.312;7.378;2023-07-31T03:58:35;11.03;;;4.97;;
5871;SDS011;2962;51.312;7.378;2023-07-31T04:01:01;10.53;;;4.03;;
5871;SDS011;2962;51.312;7.378;2023-07-31T04:03:27;11.43;;;5.33;;
5871;SDS011;2962;51.312;7.378;2023-07-31T04:05:54;12.50;;;4.73;;
5871;SDS011;2962;51.312;7.378;2023-07-31T04:08:23;8.93;;;3.70;;
5871;SDS011;2962;51.312;7.378;2023-07-31T04:10:48;9.20;;;4.90;;
5871;SDS011;2962;51.312;7.378;2023-07-31T04:13:14;9.93;;;4.37;;
5871;SDS011;2962;51.312;7.378;2023-07-31T04:15:39;10.47;;;4.27;;
5871;SDS011;2962;51.312;7.378;2023-07-31T04:18:05;14.00;;;4.33;;
5871;SDS011;2962;51.312;7.378;2023-07-31T04:20:30;20.00;;;4.53;;
5871;SDS011;2962;51.312;7.378;2023-07-31T04:22:56;13.97;;;4.67;;
5871;SDS011;2962;51.312;7.378;2023-07-31T04:25:21;7.80;;;4.00;;
5871;SDS011;2962;51.312;7.378;2023-07-31T04:27:47;7.93;;;4.50;;
5871;SDS011;2962;51.312;7.378;2023-07-31T04:30:12;9.67;;;4.87;;
5871;SDS011;2962;51.312;7.378;2023-07-31T04:32:37;5.97;;;3.80;;
5871;SDS011;2962;51.312;7.378;2023-07-31T04:35:03;6.37;;;4.00;;
5871;SDS011;2962;51.312;7.378;2023-07-31T04:37:28;6.93;;;3.93;;
5871;SDS011;2962;51.312;7.378;2023-07-31T04:39:54;8.60;;;4.70;;
5871;SDS011;2962;51.312;7.378;2023-07-31T04:42:19;3.73;;;3.40;;
5871;SDS011;2962;51.312;7.378;2023-07-31T04:44:44;5.80;;;4.23;;
5871;SDS011;2962;51.312;7.378;2023-07-31T04:47:09;6.83;;;4.47;;
5871;SDS011;2962;51.312;7.378;2023-07-31T04:49:35;8.87;;;4.67;;
5871;SDS011;2962;51.312;7.378;2023-07-31T04:52:00;12.07;;;4.67;;
5871;SDS011;2962;51.312;7.378;2023-07-31T04:54:25;13.03;;;4.97;;
5871;SDS011;2962;51.312;7.378;2023-07-31T04:56:51;5.00;;;3.80;;
5871;SDS011;2962;51.312;7.378;2023-07-31T04:59:17;10.67;;;4.93;;
5871;SDS011;2962;51.312;7.378;2023-07-31T05:01:43;8.90;;;4.60;;
5871;SDS011;2962;51.312;7.378;2023-07-31T05:04:10;7.43;;;4.30;;
5871;SDS011;2962;51.312;7.378;2023-07-31T05:06:37;7.10;;;4.80;;
5871;SDS011;2962;51.312;7.378;2023-07-31T05:09:02;11.70;;;5.63;;
5871;SDS011;2962;51.312;7.378;2023-07-31T05:11:27;8.33;;;5.20;;
5871;SDS011;2962;51.312;7.378;2023-07-31T05:13:53;9.93;;;5.93;;
5871;SDS011;2962;51.312;7.378;2023-07-31T05:16:18;10.10;;;5.90;;
5871;SDS011;2962;51.312;7.378;2023-07-31T05:18:43;15.13;;;6.27;;
5871;SDS011;2962;51.312;7.378;2023-07-31T05:21:09;13.80;;;6.07;;
5871;SDS011;2962;51.312;7.378;2023-07-31T05:23:34;14.03;;;7.03;;
5871;SDS011;2962;51.312;7.378;2023-07-31T05:26:06;10.50;;;7.00;;
5871;SDS011;2962;51.312;7.378;2023-07-31T05:28:33;12.57;;;6.43;;
5871;SDS011;2962;51.312;7.378;2023-07-31T05:31:03;19.57;;;6.10;;
5871;SDS011;2962;51.312;7.378;2023-07-31T05:33:29;14.90;;;6.03;;
5871;SDS011;2962;51.312;7.378;2023-07-31T05:35:56;9.00;;;5.97;;
5871;SDS011;2962;51.312;7.378;2023-07-31T05:38:21;8.90;;;5.57;;
5871;SDS011;2962;51.312;7.378;2023-07-31T05:40:46;14.47;;;5.43;;
5871;SDS011;2962;51.312;7.378;2023-07-31T05:43:12;9.33;;;5.03;;
5871;SDS011;2962;51.312;7.378;2023-07-31T05:45:38;6.63;;;5.43;;
5871;SDS011;2962;51.312;7.378;2023-07-31T05:48:03;7.63;;;4.97;;
5871;SDS011;2962;51.312;7.378;2023-07-31T05:50:29;9.03;;;4.80;;
5871;SDS011;2962;51.312;7.378;2023-07-31T05:52:55;13.03;;;5.10;;
5871;SDS011;2962;51.312;7.378;2023-07-31T05:55:20;12.33;;;5.33;;
5871;SDS011;2962;51.312;7.378;2023-07-31T05:57:46;13.83;;;6.33;;
5871;SDS011;2962;51.312;7.378;2023-07-31T06:00:12;8.37;;;5.50;;
5871;SDS011;2962;51.312;7.378;2023-07-31T06:02:38;8.00;;;5.70;;
5871;SDS011;2962;51.312;7.378;2023-07-31T06:05:04;12.23;;;5.73;;
5871;SDS011;2962;51.312;7.378;2023-07-31T06:07:33;10.63;;;5.20;;
5871;SDS011;2962;51.312;7.378;2023-07-31T06:09:58;8.80;;;6.30;;
5871;SDS011;2962;51.312;7.378;2023-07-31T06:12:28;8.20;;;6.30;;
5871;SDS011;2962;51.312;7.378;2023-07-31T06:14:53;12.40;;;6.00;;
5871;SDS011;2962;51.312;7.378;2023-07-31T06:17:19;11.10;;;5.33;;
5871;SDS011;2962;51.312;7.378;2023-07-31T06:19:44;6.13;;;5.43;;
5871;SDS011;2962;51.312;7.378;2023-07-31T06:22:09;11.43;;;5.43;;
5871;SDS011;2962;51.312;7.378;2023-07-31T06:24:35;7.03;;;4.90;;
5871;SDS011;2962;51.312;7.378;2023-07-31T06:27:00;12.93;;;5.27;;
5871;SDS011;2962;51.312;7.378;2023-07-31T06:29:27;5.57;;;4.13;;
5871;SDS011;2962;51.312;7.378;2023-07-31T06:31:53;11.03;;;5.57;;
5871;SDS011;2962;51.312;7.378;2023-07-31T06:34:18;8.43;;;5.30;;
5871;SDS011;2962;51.312;7.378;2023-07-31T06:36:43;5.73;;;4.17;;
5871;SDS011;2962;51.312;7.378;2023-07-31T06:39:09;5.30;;;4.93;;
5871;SDS011;2962;51.312;7.378;2023-07-31T06:41:34;12.00;;;4.90;;
5871;SDS011;2962;51.312;7.378;2023-07-31T06:43:59;11.17;;;5.23;;
5871;SDS011;2962;51.312;7.378;2023-07-31T06:46:24;11.70;;;4.60;;
5871;SDS011;2962;51.312;7.378;2023-07-31T06:48:50;9.33;;;4.37;;
5871;SDS011;2962;51.312;7.378;2023-07-31T06:51:15;6.63;;;5.40;;
5871;SDS011;2962;51.312;7.378;2023-07-31T06:53:40;5.77;;;5.20;;
5871;SDS011;2962;51.312;7.378;2023-07-31T06:56:06;6.57;;;5.17;;
5871;SDS011;2962;51.312;7.378;2023-07-31T06:58:31;11.03;;;5.30;;
5871;SDS011;2962;51.312;7.378;2023-07-31T07:00:57;6.07;;;5.20;;
5871;SDS011;2962;51.312;7.378;2023-07-31T07:03:22;10.27;;;5.10;;
5871;SDS011;2962;51.312;7.378;2023-07-31T07:05:47;8.30;;;5.33;;
5871;SDS011;2962;51.312;7.378;2023-07-31T07:08:13;6.73;;;5.60;;
5871;SDS011;2962;51.312;7.378;2023-07-31T07:10:38;7.50;;;6.17;;
5871;SDS011;2962;51.312;7.378;2023-07-31T07:13:03;6.07;;;5.47;;
5871;SDS011;2962;51.312;7.378;2023-07-31T07:15:29;8.10;;;4.90;;
5871;SDS011;2962;51.312;7.378;2023-07-31T07:17:55;5.67;;;5.00;;
5871;SDS011;2962;51.312;7.378;2023-07-31T07:20:20;11.43;;;5.20;;
5871;SDS011;2962;51.312;7.378;2023-07-31T07:22:45;10.53;;;5.53;;
5871;SDS011;2962;51.312;7.378;2023-07-31T07:25:11;6.13;;;5.33;;
5871;SDS011;2962;51.312;7.378;2023-07-31T07:27:36;7.67;;;5.60;;
5871;SDS011;2962;51.312;7.378;2023-07-31T07:30:02;11.90;;;5.80;;
5871;SDS011;2962;51.312;7.378;2023-07-31T07:32:27;6.50;;;5.17;;
5871;SDS011;2962;51.312;7.378;2023-07-31T07:34:55;7.60;;;5.67;;
5871;SDS011;2962;51.312;7.378;2023-07-31T07:37:21;7.30;;;5.80;;
5871;SDS011;2962;51.312;7.378;2023-07-31T07:39:46;10.20;;;6.10;;
5871;SDS011;2962;51.312;7.378;2023-07-31T07:42:12;10.70;;;6.10;;
5871;SDS011;2962;51.312;7.378;2023-07-31T07:44:37;9.20;;;6.13;;
5871;SDS011;2962;51.312;7.378;2023-07-31T07:47:02;12.60;;;5.40;;
5871;SDS011;2962;51.312;7.378;2023-07-31T07:49:28;10.20;;;6.37;;
5871;SDS011;2962;51.312;7.378;2023-07-31T07:51:53;11.97;;;5.63;;
5871;SDS011;2962;51.312;7.378;2023-07-31T07:54:19;10.40;;;6.30;;
5871;SDS011;2962;51.312;7.378;2023-07-31T07:56:46;9.73;;;5.67;;
5871;SDS011;2962;51.312;7.378;2023-07-31T07:59:11;10.47;;;5.80;;
5871;SDS011;2962;51.312;7.378;2023-07-31T08:01:37;11.73;;;6.53;;
5871;SDS011;2962;51.312;7.378;2023-07-31T08:04:02;14.37;;;6.87;;
5871;SDS011;2962;51.312;7.378;2023-07-31T08:06:27;8.83;;;5.90;;
5871;SDS011;2962;51.312;7.378;2023-07-31T08:08:54;10.63;;;5.00;;
5871;SDS011;2962;51.312;7.378;2023-07-31T08:11:20;8.20;;;5.37;;
5871;SDS011;2962;51.312;7.378;2023-07-31T08:13:45;13.50;;;5.80;;
5871;SDS011;2962;51.312;7.378;2023-07-31T08:16:11;9.03;;;5.30;;
5871;SDS011;2962;51.312;7.378;2023-07-31T08:18:36;6.53;;;5.90;;
5871;SDS011;2962;51.312;7.378;2023-07-31T08:21:02;11.80;;;5.70;;
5871;SDS011;2962;51.312;7.378;2023-07-31T08:23:28;12.70;;;5.10;;
5871;SDS011;2962;51.312;7.378;2023-07-31T08:25:53;11.27;;;5.17;;
5871;SDS011;2962;51.312;7.378;2023-07-31T08:28:18;8.53;;;4.40;;
5871;SDS011;2962;51.312;7.378;2023-07-31T08:30:44;5.50;;;4.30;;
5871;SDS011;2962;51.312;7.378;2023-07-31T08:33:10;7.50;;;5.10;;
5871;SDS011;2962;51.312;7.378;2023-07-31T08:35:36;10.53;;;4.83;;
5871;SDS011;2962;51.312;7.378;2023-07-31T08:38:01;6.17;;;4.30;;
5871;SDS011;2962;51.312;7.378;2023-07-31T08:40:26;4.50;;;4.20;;
5871;SDS011;2962;51.312;7.378;2023-07-31T08:42:53;6.80;;;3.70;;
5871;SDS011;2962;51.312;7.378;2023-07-31T08:45:21;5.53;;;3.93;;
5871;SDS011;2962;51.312;7.378;2023-07-31T08:47:47;4.00;;;3.70;;
5871;SDS011;2962;51.312;7.378;2023-07-31T08:50:16;4.20;;;3.80;;
5871;SDS011;2962;51.312;7.378;2023-07-31T08:52:43;4.90;;;4.43;;
5871;SDS011;2962;51.312;7.378;2023-07-31T08:55:09;4.20;;;3.73;;
5871;SDS011;2962;51.312;7.378;2023-07-31T08:57:35;3.60;;;3.30;;
5871;SDS011;2962;51.312;7.378;2023-07-31T09:00:02;5.40;;;2.77;;
5871;SDS011;2962;51.312;7.378;2023-07-31T09:02:31;4.63;;;3.30;;
5871;SDS011;2962;51.312;7.378;2023-07-31T09:05:02;4.10;;;3.67;;
5871;SDS011;2962;51.312;7.378;2023-07-31T09:07:30;4.47;;;3.17;;
5871;SDS011;2962;51.312;7.378;2023-07-31T09:09:57;3.27;;;3.07;;
5871;SDS011;2962;51.312;7.378;2023-07-31T09:12:22;3.07;;;2.97;;
5871;SDS011;2962;51.312;7.378;2023-07-31T09:14:47;5.93;;;3.97;;
5871;SDS011;2962;51.312;7.378;2023-07-31T09:17:13;3.30;;;3.10;;
5871;SDS011;2962;51.312;7.378;2023-07-31T09:19:38;4.20;;;4.00;;
5871;SDS011;2962;51.312;7.378;2023-07-31T09:22:07;9.87;;;4.80;;
5871;SDS011;2962;51.312;7.378;2023-07-31T09:24:33;4.90;;;4.50;;
5871;SDS011;2962;51.312;7.378;2023-07-31T09:27:02;4.63;;;4.23;;
5871;SDS011;2962;51.312;7.378;2023-07-31T09:29:28;4.70;;;4.27;;
5871;SDS011;2962;51.312;7.378;2023-07-31T09:31:54;12.87;;;5.20;;
5871;SDS011;2962;51.312;7.378;2023-07-31T09:34:20;4.70;;;4.20;;
5871;SDS011;2962;51.312;7.378;2023-07-31T09:36:53;10.53;;;4.13;;
5871;SDS011;2962;51.312;7.378;2023-07-31T09:39:19;9.73;;;5.00;;
5871;SDS011;2962;51.312;7.378;2023-07-31T09:41:53;4.83;;;3.97;;
5871;SDS011;2962;51.312;7.378;2023-07-31T09:44:20;5.43;;;4.30;;
5871;SDS011;2962;51.312;7.378;2023-07-31T09:46:46;4.40;;;4.10;;
5871;SDS011;2962;51.312;7.378;2023-07-31T09:49:12;6.47;;;4.67;;
5871;SDS011;2962;51.312;7.378;2023-07-31T09:51:39;5.10;;;3.60;;
5871;SDS011;2962;51.312;7.378;2023-07-31T09:54:11;4.27;;;4.00;;
5871;SDS011;2962;51.312;7.378;2023-07-31T09:56:41;5.90;;;3.23;;
5871;SDS011;2962;51.312;7.378;2023-07-31T09:59:16;3.93;;;3.47;;
5871;SDS011;2962;51.312;7.378;2023-07-31T10:01:43;3.77;;;3.37;;
5871;SDS011;2962;51.312;7.378;2023-07-31T10:04:11;4.03;;;3.47;;
5871;SDS011;2962;51.312;7.378;2023-07-31T10:06:38;4.73;;;4.43;;
5871;SDS011;2962;51.312;7.378;2023-07-31T10:09:05;3.93;;;3.63;;
5871;SDS011;2962;51.312;7.378;2023-07-31T10:11:38;3.40;;;3.20;;
5871;SDS011;2962;51.312;7.378;2023-07-31T10:14:07;3.03;;;2.87;;
5871;SDS011;2962;51.312;7.378;2023-07-31T10:16:34;2.60;;;2.50;;
5871;SDS011;2962;51.312;7.378;2023-07-31T10:19:00;2.80;;;2.80;;
5871;SDS011;2962;51.312;7.378;2023-07-31T10:21:26;3.67;;;3.47;;
5871;SDS011;2962;51.312;7.378;2023-07-31T10:23:52;4.77;;;2.03;;
5871;SDS011;2962;51.312;7.378;2023-07-31T10:26:19;3.00;;;2.90;;
5871;SDS011;2962;51.312;7.378;2023-07-31T10:28:48;3.60;;;3.30;;
5871;SDS011;2962;51.312;7.378;2023-07-31T10:31:15;3.13;;;2.87;;
5871;SDS011;2962;51.312;7.378;2023-07-31T10:33:41;3.30;;;3.20;;
5871;SDS011;2962;51.312;7.378;2023-07-31T10:36:17;3.70;;;3.50;;
5871;SDS011;2962;51.312;7.378;2023-07-31T10:38:43;3.60;;;3.50;;
5871;SDS011;2962;51.312;7.378;2023-07-31T10:41:09;3.07;;;2.97;;
5871;SDS011;2962;51.312;7.378;2023-07-31T10:43:36;3.77;;;3.50;;
5871;SDS011;2962;51.312;7.378;2023-07-31T10:46:08;3.80;;;3.47;;
5871;SDS011;2962;51.312;7.378;2023-07-31T10:48:36;5.50;;;3.17;;
5871;SDS011;2962;51.312;7.378;2023-07-31T10:51:06;3.77;;;3.47;;
5871;SDS011;2962;51.312;7.378;2023-07-31T10:53:34;4.70;;;4.40;;
5871;SDS011;2962;51.312;7.378;2023-07-31T10:56:00;3.50;;;3.40;;
5871;SDS011;2962;51.312;7.378;2023-07-31T10:58:38;4.10;;;3.73;;
5871;SDS011;2962;51.312;7.378;2023-07-31T11:01:04;7.60;;;3.80;;
5871;SDS011;2962;51.312;7.378;2023-07-31T11:03:44;5.13;;;3.20;;
5871;SDS011;2962;51.312;7.378;2023-07-31T11:06:11;3.87;;;3.43;;
5871;SDS011;2962;51.312;7.378;2023-07-31T11:08:41;3.57;;;3.37;;
5871;SDS011;2962;51.312;7.378;2023-07-31T11:11:09;4.07;;;3.90;;
5871;SDS011;2962;51.312;7.378;2023-07-31T11:13:46;3.87;;;3.67;;
5871;SDS011;2962;51.312;7.378;2023-07-31T11:16:14;5.00;;;3.97;;
5871;SDS011;2962;51.312;7.378;2023-07-31T11:18:41;4.50;;;4.10;;
5871;SDS011;2962;51.312;7.378;2023-07-31T11:21:09;4.93;;;4.60;;
5871;SDS011;2962;51.312;7.378;2023-07-31T11:23:37;4.93;;;4.40;;
5871;SDS011;2962;51.312;7.378;2023-07-31T11:26:04;5.47;;;4.27;;
5871;SDS011;2962;51.312;7.378;2023-07-31T11:28:33;3.77;;;3.67;;
5871;SDS011;2962;51.312;7.378;2023-07-31T11:31:00;3.73;;;3.53;;
5871;SDS011;2962;51.312;7.378;2023-07-31T11:33:26;13.23;;;4.43;;
5871;SDS011;2962;51.312;7.378;2023-07-31T11:35:52;4.30;;;3.80;;
5871;SDS011;2962;51.312;7.378;2023-07-31T11:38:20;4.40;;;3.87;;
5871;SDS011;2962;51.312;7.378;2023-07-31T11:40:50;4.40;;;4.10;;
5871;SDS011;2962;51.312;7.378;2023-07-31T11:43:17;4.40;;;4.10;;
5871;SDS011;2962;51.312;7.378;2023-07-31T11:45:55;5.03;;;4.47;;
5871;SDS011;2962;51.312;7.378;2023-07-31T11:48:22;4.87;;;4.40;;
5871;SDS011;2962;51.312;7.378;2023-07-31T11:50:58;6.20;;;5.67;;
5871;SDS011;2962;51.312;7.378;2023-07-31T11:53:29;4.83;;;4.53;;
5871;SDS011;2962;51.312;7.378;2023-07-31T11:56:05;4.77;;;4.37;;
5871;SDS011;2962;51.312;7.378;2023-07-31T11:58:32;4.33;;;4.07;;
5871;SDS011;2962;51.312;7.378;2023-07-31T12:00:59;6.00;;;4.87;;
5871;SDS011;2962;51.312;7.378;2023-07-31T12:03:25;5.03;;;4.50;;
5871;SDS011;2962;51.312;7.378;2023-07-31T12:05:52;5.33;;;4.60;;
5871;SDS011;2962;51.312;7.378;2023-07-31T12:08:18;4.47;;;4.10;;
5871;SDS011;2962;51.312;7.378;2023-07-31T12:10:46;6.60;;;4.10;;
5871;SDS011;2962;51.312;7.378;2023-07-31T12:13:24;5.00;;;4.60;;
5871;SDS011;2962;51.312;7.378;2023-07-31T12:15:55;4.47;;;4.10;;
5871;SDS011;2962;51.312;7.378;2023-07-31T12:18:26;3.97;;;3.77;;
5871;SDS011;2962;51.312;7.378;2023-07-31T12:20:56;7.83;;;4.33;;
5871;SDS011;2962;51.312;7.378;2023-07-31T12:23:24;4.50;;;4.20;;
5871;SDS011;2962;51.312;7.378;2023-07-31T12:26:04;4.13;;;3.93;;
5871;SDS011;2962;51.312;7.378;2023-07-31T12:28:37;5.63;;;4.97;;
5871;SDS011;2962;51.312;7.378;2023-07-31T12:31:03;4.80;;;4.50;;
5871;SDS011;2962;51.312;7.378;2023-07-31T12:33:33;4.10;;;3.70;;
5871;SDS011;2962;51.312;7.378;2023-07-31T12:36:03;4.93;;;3.77;;
5871;SDS011;2962;51.312;7.378;2023-07-31T12:38:31;5.73;;;4.50;;
5871;SDS011;2962;51.312;7.378;2023-07-31T12:40:56;5.40;;;3.73;;
5871;SDS011;2962;51.312;7.378;2023-07-31T12:43:22;3.40;;;3.20;;
5871;SDS011;2962;51.312;7.378;2023-07-31T12:45:47;3.93;;;3.73;;
5871;SDS011;2962;51.312;7.378;2023-07-31T12:48:13;4.17;;;3.97;;
5871;SDS011;2962;51.312;7.378;2023-07-31T12:50:38;4.23;;;3.60;;
5871;SDS011;2962;51.312;7.378;2023-07-31T12:53:04;2.57;;;2.40;;
5871;SDS011;2962;51.312;7.378;2023-07-31T12:55:29;3.50;;;3.20;;
5871;SDS011;2962;51.312;7.378;2023-07-31T12:57:55;3.20;;;3.03;;
5871;SDS011;2962;51.312;7.378;2023-07-31T13:00:20;3.30;;;3.20;;
5871;SDS011;2962;51.312;7.378;2023-07-31T13:02:46;3.73;;;3.50;;
5871;SDS011;2962;51.312;7.378;2023-07-31T13:05:11;2.77;;;2.57;;
5871;SDS011;2962;51.312;7.378;2023-07-31T13:07:38;3.17;;;2.87;;
5871;SDS011;2962;51.312;7.378;2023-07-31T13:10:03;3.50;;;3.40;;
5871;SDS011;2962;51.312;7.378;2023-07-31T13:12:29;3.73;;;3.47;;
5871;SDS011;2962;51.312;7.378;2023-07-31T13:14:54;3.20;;;3.10;;
5871;SDS011;2962;51.312;7.378;2023-07-31T13:17:20;3.80;;;3.40;;
5871;SDS011;2962;51.312;7.378;2023-07-31T13:19:45;18.60;;;4.10;;
5871;SDS011;2962;51.312;7.378;2023-07-31T13:22:10;3.07;;;2.97;;
5871;SDS011;2962;51.312;7.378;2023-07-31T13:24:36;3.93;;;3.80;;
5871;SDS011;2962;51.312;7.378;2023-07-31T13:27:01;3.30;;;3.30;;
5871;SDS011;2962;51.312;7.378;2023-07-31T13:29:26;4.10;;;3.90;;
5871;SDS011;2962;51.312;7.378;2023-07-31T13:31:52;3.93;;;3.70;;
5871;SDS011;2962;51.312;7.378;2023-07-31T13:34:17;4.63;;;4.43;;
5871;SDS011;2962;51.312;7.378;2023-07-31T13:36:43;5.10;;;4.70;;
5871;SDS011;2962;51.312;7.378;2023-07-31T13:39:08;5.63;;;5.40;;
5871;SDS011;2962;51.312;7.378;2023-07-31T13:41:33;12.73;;;10.00;;
5871;SDS011;2962;51.312;7.378;2023-07-31T13:43:59;8.63;;;7.80;;
5871;SDS011;2962;51.312;7.378;2023-07-31T13:46:24;6.70;;;6.20;;
5871;SDS011;2962;51.312;7.378;2023-07-31T13:48:50;8.53;;;6.63;;
5871;SDS011;2962;51.312;7.378;2023-07-31T13:51:16;6.80;;;6.17;;
5871;SDS011;2962;51.312;7.378;2023-07-31T13:53:41;7.33;;;6.47;;
5871;SDS011;2962;51.312;7.378;2023-07-31T13:56:06;9.63;;;5.70;;
5871;SDS011;2962;51.312;7.378;2023-07-31T13:58:32;7.83;;;5.20;;
5871;SDS011;2962;51.312;7.378;2023-07-31T14:00:58;5.77;;;5.00;;
5871;SDS011;2962;51.312;7.378;2023-07-31T14:03:23;6.13;;;5.60;;
5871;SDS011;2962;51.312;7.378;2023-07-31T14:05:48;4.90;;;4.57;;
5871;SDS011;2962;51.312;7.378;2023-07-31T14:08:14;4.87;;;4.50;;
5871;SDS011;2962;51.312;7.378;2023-07-31T14:10:39;7.23;;;6.53;;
5871;SDS011;2962;51.312;7.378;2023-07-31T14:13:04;5.73;;;4.93;;
5871;SDS011;2962;51.312;7.378;2023-07-31T14:15:30;5.07;;;4.77;;
5871;SDS011;2962;51.312;7.378;2023-07-31T14:17:56;4.63;;;4.20;;
5871;SDS011;2962;51.312;7.378;2023-07-31T14:20:22;4.20;;;4.00;;
5871;SDS011;2962;51.312;7.378;2023-07-31T14:22:47;3.87;;;3.70;;
5871;SDS011;2962;51.312;7.378;2023-07-31T14:25:12;3.90;;;3.57;;
5871;SDS011;2962;51.312;7.378;2023-07-31T14:27:38;4.17;;;3.90;;
5871;SDS011;2962;51.312;7.378;2023-07-31T14:30:03;3.43;;;3.23;;
5871;SDS011;2962;51.312;7.378;2023-07-31T14:32:29;4.07;;;3.73;;
5871;SDS011;2962;51.312;7.378;2023-07-31T14:34:54;3.30;;;3.10;;
5871;SDS011;2962;51.312;7.378;2023-07-31T14:37:20;3.40;;;3.30;;
5871;SDS011;2962;51.312;7.378;2023-07-31T14:39:45;3.57;;;3.30;;
5871;SDS011;2962;51.312;7.378;2023-07-31T14:42:11;3.40;;;2.70;;
5871;SDS011;2962;51.312;7.378;2023-07-31T14:44:36;3.70;;;3.60;;
5871;SDS011;2962;51.312;7.378;2023-07-31T14:47:01;3.57;;;3.37;;
5871;SDS011;2962;51.312;7.378;2023-07-31T14:49:27;4.23;;;4.03;;
5871;SDS011;2962;51.312;7.378;2023-07-31T14:51:53;5.43;;;2.80;;
5871;SDS011;2962;51.312;7.378;2023-07-31T14:54:18;4.60;;;3.30;;
5871;SDS011;2962;51.312;7.378;2023-07-31T14:56:44;3.40;;;3.20;;
5871;SDS011;2962;51.312;7.378;2023-07-31T14:59:09;3.03;;;2.93;;
5871;SDS011;2962;51.312;7.378;2023-07-31T15:01:35;3.23;;;3.13;;
5871;SDS011;2962;51.312;7.378;2023-07-31T15:04:00;4.30;;;3.17;;
5871;SDS011;2962;51.312;7.378;2023-07-31T15:06:25;3.30;;;3.03;;
5871;SDS011;2962;51.312;7.378;2023-07-31T15:08:51;3.57;;;3.33;;
5871;SDS011;2962;51.312;7.378;2023-07-31T15:11:16;6.37;;;3.20;;